createdAt,value
2019-06-08T00:01:07.572Z,15.29
2019-06-08T00:03:10.623Z,15.27
2019-06-08T00:06:07.819Z,15.33
2019-06-08T00:11:07.488Z,15.26
2019-06-08T00:14:07.676Z,15.23
2019-06-08T00:17:07.297Z,15.27
2019-06-08T00:18:07.292Z,15.23
2019-06-08T00:21:07.602Z,15.30
2019-06-08T00:22:07.286Z,15.23
2019-06-08T00:23:07.281Z,15.26
2019-06-08T00:24:07.257Z,15.23
2019-06-08T00:25:07.246Z,15.22
2019-06-08T00:26:07.168Z,15.11
2019-06-08T00:29:07.481Z,15.08
2019-06-08T00:32:07.113Z,15.01
2019-06-08T00:33:07.047Z,14.95
2019-06-08T00:38:34.012Z,14.97
2019-06-08T00:42:06.895Z,14.95
2019-06-08T00:43:06.928Z,14.97
2019-06-08T00:44:07.214Z,14.93
2019-06-08T00:45:06.954Z,14.92
2019-06-08T00:46:06.828Z,14.99
2019-06-08T00:47:06.800Z,14.93
2019-06-08T00:48:06.897Z,14.97
2019-06-08T00:49:06.780Z,14.92
2019-06-08T00:50:06.756Z,14.90
2019-06-08T00:51:07.027Z,14.89
2019-06-08T00:52:06.755Z,14.86
2019-06-08T00:53:06.726Z,14.82
2019-06-08T00:54:06.722Z,14.89
2019-06-08T00:55:06.599Z,14.87
2019-06-08T00:56:06.513Z,14.83
2019-06-08T00:57:06.504Z,14.79
2019-06-08T00:58:08.371Z,14.83
2019-06-08T00:59:06.471Z,14.77
2019-06-08T01:00:10.949Z,14.83
2019-06-08T01:01:06.621Z,14.82
2019-06-08T01:02:06.524Z,14.74
2019-06-08T01:03:06.838Z,14.79
2019-06-08T01:04:06.506Z,14.73
2019-06-08T01:06:06.737Z,14.73
2019-06-08T01:07:06.933Z,14.73
2019-06-08T01:11:06.325Z,14.74
2019-06-08T01:12:06.300Z,14.77
2019-06-08T01:13:06.542Z,14.71
2019-06-08T01:14:06.217Z,14.77
2019-06-08T01:15:06.810Z,14.78
2019-06-08T01:16:06.374Z,14.78
2019-06-08T01:17:06.367Z,14.79
2019-06-08T01:19:06.267Z,14.74
2019-06-08T01:20:06.607Z,14.77
2019-06-08T01:21:06.516Z,14.78
2019-06-08T01:22:06.259Z,14.77
2019-06-08T01:23:06.145Z,14.83
2019-06-08T01:24:06.195Z,14.92
2019-06-08T01:25:06.109Z,14.92
2019-06-08T01:26:06.187Z,14.71
2019-06-08T01:27:06.381Z,14.83
2019-06-08T01:28:06.057Z,14.78
2019-06-08T01:29:06.061Z,14.77
2019-06-08T01:30:06.175Z,14.74
2019-06-08T01:31:06.033Z,14.77
2019-06-08T01:32:06.087Z,14.77
2019-06-08T01:34:07.590Z,14.79
2019-06-08T01:35:06.642Z,14.71
2019-06-08T01:36:06.070Z,14.74
2019-06-08T01:37:05.980Z,14.77
2019-06-08T01:38:06.158Z,14.67
2019-06-08T01:39:05.973Z,14.63
2019-06-08T01:40:05.984Z,14.63
2019-06-08T01:41:06.376Z,14.61
2019-06-08T01:42:06.046Z,14.71
2019-06-08T01:43:05.986Z,14.64
2019-06-08T01:44:05.914Z,14.67
2019-06-08T01:45:05.917Z,14.67
2019-06-08T01:47:05.766Z,14.67
2019-06-08T01:48:19.521Z,14.77
2019-06-08T01:49:06.074Z,14.59
2019-06-08T01:50:05.603Z,14.73
2019-06-08T01:51:05.604Z,14.61
2019-06-08T01:52:05.619Z,14.61
2019-06-08T01:54:05.954Z,14.64
2019-06-08T01:55:05.515Z,14.63
2019-06-08T01:56:05.693Z,14.63
2019-06-08T01:57:05.746Z,14.61
2019-06-08T01:58:05.755Z,14.56
2019-06-08T01:59:05.794Z,14.58
2019-06-08T02:00:29.385Z,14.61
2019-06-08T02:01:05.682Z,14.58
2019-06-08T02:02:05.510Z,14.59
2019-06-08T02:03:06.004Z,14.53
2019-06-08T02:04:05.436Z,14.56
2019-06-08T02:05:05.633Z,14.56
2019-06-08T02:06:05.861Z,14.59
2019-06-08T02:07:05.791Z,14.63
2019-06-08T02:08:05.633Z,14.56
2019-06-08T02:09:05.440Z,14.69
2019-06-08T02:10:05.839Z,14.64
2019-06-08T02:12:05.330Z,14.55
2019-06-08T02:13:08.585Z,14.59
2019-06-08T02:14:05.421Z,14.56
2019-06-08T02:16:05.365Z,14.56
2019-06-08T02:17:05.891Z,14.55
2019-06-08T02:18:05.338Z,14.52
2019-06-08T02:19:05.186Z,14.63
2019-06-08T02:20:07.548Z,14.58
2019-06-08T02:21:05.691Z,14.44
2019-06-08T02:22:05.208Z,14.56
2019-06-08T02:23:05.211Z,14.51
2019-06-08T02:24:05.163Z,14.49
2019-06-08T02:26:05.573Z,14.58
2019-06-08T02:27:05.246Z,14.45
2019-06-08T02:28:05.104Z,14.55
2019-06-08T02:30:05.200Z,14.51
2019-06-08T02:31:05.014Z,14.52
2019-06-08T02:34:05.010Z,14.58
2019-06-08T02:35:05.968Z,14.56
2019-06-08T02:36:05.118Z,14.55
2019-06-08T02:38:05.127Z,14.45
2019-06-08T02:40:04.994Z,14.46
2019-06-08T02:41:04.867Z,14.44
2019-06-08T02:43:06.139Z,14.56
2019-06-08T02:44:04.892Z,14.52
2019-06-08T02:45:05.082Z,14.52
2019-06-08T02:46:04.907Z,14.52
2019-06-08T02:47:04.944Z,14.40
2019-06-08T02:49:05.156Z,14.46
2019-06-08T02:50:05.100Z,14.51
2019-06-08T02:53:04.761Z,14.45
2019-06-08T02:54:04.773Z,14.51
2019-06-08T02:56:05.047Z,14.53
2019-06-08T02:57:05.018Z,14.44
2019-06-08T02:58:04.603Z,14.46
2019-06-08T02:59:04.544Z,14.41
2019-06-08T03:00:04.626Z,14.44
2019-06-08T03:01:04.734Z,14.41
2019-06-08T03:02:04.580Z,14.45
2019-06-08T03:03:04.533Z,14.45
2019-06-08T03:04:04.861Z,14.45
2019-06-08T03:05:04.997Z,14.48
2019-06-08T03:06:04.581Z,14.45
2019-06-08T03:07:04.413Z,14.40
2019-06-08T03:08:04.427Z,14.38
2019-06-08T03:09:04.404Z,14.38
2019-06-08T03:10:04.754Z,14.48
2019-06-08T03:11:04.444Z,14.33
2019-06-08T03:12:04.759Z,14.31
2019-06-08T03:13:04.181Z,14.37
2019-06-08T03:15:04.378Z,14.31
2019-06-08T03:16:04.613Z,14.34
2019-06-08T03:17:04.202Z,14.36
2019-06-08T03:18:04.191Z,14.38
2019-06-08T03:19:20.126Z,14.30
2019-06-08T03:20:04.197Z,14.37
2019-06-08T03:21:04.132Z,14.34
2019-06-08T03:22:04.496Z,14.30
2019-06-08T03:24:03.973Z,14.33
2019-06-08T03:25:04.030Z,14.36
2019-06-08T03:27:03.920Z,14.31
2019-06-08T03:28:04.204Z,14.33
2019-06-08T03:29:03.891Z,14.23
2019-06-08T03:30:16.698Z,14.31
2019-06-08T03:31:04.010Z,14.31
2019-06-08T03:32:04.067Z,14.30
2019-06-08T03:33:03.966Z,14.30
2019-06-08T03:34:04.295Z,14.23
2019-06-08T03:35:03.969Z,14.23
2019-06-08T03:36:03.910Z,14.27
2019-06-08T03:37:03.872Z,14.28
2019-06-08T03:38:03.808Z,14.28
2019-06-08T03:39:03.789Z,14.31
2019-06-08T03:40:04.184Z,14.30
2019-06-08T03:41:04.117Z,14.30
2019-06-08T03:42:03.773Z,14.30
2019-06-08T03:43:03.757Z,14.28
2019-06-08T03:45:03.658Z,14.26
2019-06-08T03:46:03.894Z,14.26
2019-06-08T03:47:03.656Z,14.30
2019-06-08T03:48:03.649Z,14.27
2019-06-08T03:49:03.715Z,14.28
2019-06-08T03:50:03.523Z,14.23
2019-06-08T03:53:03.786Z,14.27
2019-06-08T03:54:03.531Z,14.18
2019-06-08T03:55:03.507Z,14.22
2019-06-08T03:57:03.737Z,14.18
2019-06-08T03:58:03.590Z,14.23
2019-06-08T03:59:03.485Z,14.18
2019-06-08T04:00:12.527Z,14.26
2019-06-08T04:01:03.410Z,14.22
2019-06-08T04:02:03.395Z,14.19
2019-06-08T04:03:03.368Z,14.21
2019-06-08T04:04:03.410Z,14.22
2019-06-08T04:05:03.465Z,14.26
2019-06-08T04:06:03.341Z,14.30
2019-06-08T04:07:03.532Z,14.30
2019-06-08T04:08:03.276Z,14.22
2019-06-08T04:09:03.276Z,14.26
2019-06-08T04:10:03.253Z,14.34
2019-06-08T04:11:03.274Z,14.28
2019-06-08T04:12:03.345Z,14.26
2019-06-08T04:13:03.245Z,14.26
2019-06-08T04:14:03.603Z,14.23
2019-06-08T04:15:03.282Z,14.22
2019-06-08T04:16:03.244Z,14.18
2019-06-08T04:17:03.212Z,14.23
2019-06-08T04:18:03.259Z,14.26
2019-06-08T04:19:03.187Z,14.26
2019-06-08T04:20:11.312Z,14.18
2019-06-08T04:22:03.068Z,14.21
2019-06-08T04:23:03.065Z,14.22
2019-06-08T04:24:03.072Z,14.18
2019-06-08T04:25:03.048Z,14.16
2019-06-08T04:26:03.010Z,14.27
2019-06-08T04:28:03.456Z,14.27
2019-06-08T04:31:02.954Z,14.23
2019-06-08T04:32:03.090Z,14.22
2019-06-08T04:33:02.895Z,14.27
2019-06-08T04:34:03.072Z,14.21
2019-06-08T04:35:02.830Z,14.30
2019-06-08T04:36:02.982Z,14.30
2019-06-08T04:37:02.813Z,14.30
2019-06-08T04:38:02.839Z,14.28
2019-06-08T04:39:02.896Z,14.26
2019-06-08T04:40:03.377Z,14.31
2019-06-08T04:41:02.850Z,14.22
2019-06-08T04:42:02.761Z,14.27
2019-06-08T04:43:02.763Z,14.22
2019-06-08T04:44:02.677Z,14.26
2019-06-08T04:45:02.659Z,14.30
2019-06-08T04:47:02.991Z,14.28
2019-06-08T04:48:02.770Z,14.26
2019-06-08T04:49:02.605Z,14.31
2019-06-08T04:50:20.849Z,14.21
2019-06-08T04:51:02.846Z,14.33
2019-06-08T04:52:02.514Z,14.28
2019-06-08T04:53:02.913Z,14.26
2019-06-08T04:54:02.433Z,14.37
2019-06-08T04:55:02.691Z,14.28
2019-06-08T04:56:02.465Z,14.31
2019-06-08T04:57:02.689Z,14.34
2019-06-08T04:58:02.431Z,14.34
2019-06-08T04:59:02.727Z,14.31
2019-06-08T05:00:11.284Z,14.40
2019-06-08T05:01:02.482Z,14.37
2019-06-08T05:02:02.533Z,14.34
2019-06-08T05:03:02.479Z,14.46
2019-06-08T05:04:02.253Z,14.49
2019-06-08T05:05:02.708Z,14.55
2019-06-08T05:06:02.266Z,14.59
2019-06-08T05:07:02.301Z,14.63
2019-06-08T05:11:02.631Z,14.59
2019-06-08T05:12:02.248Z,14.66
2019-06-08T05:13:02.317Z,14.64
2019-06-08T05:14:02.279Z,14.64
2019-06-08T05:15:02.300Z,14.77
2019-06-08T05:16:02.189Z,14.67
2019-06-08T05:17:02.130Z,14.70
2019-06-08T05:18:02.439Z,14.78
2019-06-08T05:19:02.509Z,14.85
2019-06-08T05:20:02.207Z,14.86
2019-06-08T05:21:02.050Z,14.83
2019-06-08T05:22:02.041Z,14.78
2019-06-08T05:23:02.110Z,14.78
2019-06-08T05:24:02.003Z,14.86
2019-06-08T05:25:02.209Z,14.85
2019-06-08T05:26:02.238Z,14.92
2019-06-08T05:27:01.910Z,14.92
2019-06-08T05:28:01.931Z,14.77
2019-06-08T05:30:08.435Z,14.78
2019-06-08T05:31:01.994Z,14.74
2019-06-08T05:32:02.163Z,14.77
2019-06-08T05:33:01.771Z,14.79
2019-06-08T05:34:01.961Z,14.87
2019-06-08T05:36:01.714Z,14.77
2019-06-08T05:37:01.842Z,14.79
2019-06-08T05:38:01.840Z,14.86
2019-06-08T05:39:02.270Z,14.95
2019-06-08T05:40:01.663Z,14.96
2019-06-08T05:42:01.744Z,14.95
2019-06-08T05:43:01.733Z,14.97
2019-06-08T05:44:01.773Z,14.96
2019-06-08T05:45:01.714Z,14.96
2019-06-08T05:48:01.601Z,14.93
2019-06-08T05:49:01.600Z,14.96
2019-06-08T05:50:01.596Z,15.03
2019-06-08T05:52:01.859Z,14.90
2019-06-08T05:53:01.438Z,14.99
2019-06-08T05:56:01.389Z,15.23
2019-06-08T05:57:01.551Z,15.25
2019-06-08T05:58:01.433Z,15.23
2019-06-08T05:59:01.749Z,15.26
2019-06-08T06:00:08.454Z,15.23
2019-06-08T06:01:01.308Z,15.22
2019-06-08T06:03:04.531Z,15.12
2019-06-08T06:04:01.350Z,15.20
2019-06-08T06:05:01.730Z,15.22
2019-06-08T06:07:01.273Z,15.29
2019-06-08T06:09:01.350Z,15.29
2019-06-08T06:10:01.278Z,15.32
2019-06-08T06:11:01.853Z,15.29
2019-06-08T06:12:01.272Z,15.30
2019-06-08T06:13:01.314Z,15.35
2019-06-08T06:14:01.170Z,15.36
2019-06-08T06:15:01.140Z,15.38
2019-06-08T06:16:01.277Z,15.41
2019-06-08T06:17:01.479Z,15.52
2019-06-08T06:18:01.247Z,15.62
2019-06-08T06:19:01.217Z,15.52
2019-06-08T06:20:01.075Z,15.66
2019-06-08T06:22:01.463Z,15.66
2019-06-08T06:26:01.427Z,15.70
2019-06-08T06:28:00.989Z,15.87
2019-06-08T06:29:01.015Z,15.84
2019-06-08T06:30:01.042Z,15.91
2019-06-08T06:31:01.026Z,16.00
2019-06-08T06:32:01.483Z,15.95
2019-06-08T06:33:00.930Z,16.03
2019-06-08T06:34:00.950Z,15.98
2019-06-08T06:35:00.853Z,16.02
2019-06-08T06:36:01.537Z,16.06
2019-06-08T06:38:01.413Z,16.08
2019-06-08T06:39:00.808Z,16.03
2019-06-08T06:40:01.009Z,16.06
2019-06-08T06:41:00.794Z,16.08
2019-06-08T06:42:00.876Z,16.03
2019-06-08T06:43:00.853Z,16.06
2019-06-08T06:44:00.992Z,16.13
2019-06-08T06:45:00.702Z,16.10
2019-06-08T06:46:00.789Z,16.14
2019-06-08T06:47:00.666Z,16.13
2019-06-08T06:48:00.712Z,16.10
2019-06-08T06:49:00.633Z,16.06
2019-06-08T06:50:00.641Z,16.10
2019-06-08T06:51:00.911Z,16.06
2019-06-08T06:52:00.584Z,16.09
2019-06-08T06:53:00.515Z,16.09
2019-06-08T06:55:00.750Z,16.21
2019-06-08T06:56:00.606Z,16.22
2019-06-08T06:57:00.638Z,16.24
2019-06-08T06:58:01.633Z,16.36
2019-06-08T06:59:00.734Z,16.42
2019-06-08T07:01:00.914Z,16.54
2019-06-08T07:02:00.494Z,16.59
2019-06-08T07:03:00.428Z,16.73
2019-06-08T07:04:00.357Z,16.76
2019-06-08T07:06:00.783Z,16.79
2019-06-08T07:07:00.376Z,16.69
2019-06-08T07:08:00.284Z,16.69
2019-06-08T07:09:00.394Z,16.61
2019-06-08T07:12:00.681Z,16.62
2019-06-08T07:13:00.247Z,16.54
2019-06-08T07:14:01.047Z,16.62
2019-06-08T07:16:16.929Z,16.74
2019-06-08T07:17:00.232Z,16.84
2019-06-08T07:18:00.323Z,16.84
2019-06-08T07:22:00.172Z,16.84
2019-06-08T07:24:00.078Z,16.87
2019-06-08T07:25:00.114Z,16.92
2019-06-08T07:26:00.551Z,16.88
2019-06-08T07:28:00.107Z,16.95
2019-06-08T07:29:00.039Z,16.95
2019-06-08T07:30:00.036Z,16.83
2019-06-08T07:31:00.235Z,16.82
2019-06-08T07:33:00.527Z,16.82
2019-06-08T07:34:00.170Z,16.98
2019-06-08T07:35:00.058Z,17.09
2019-06-08T07:37:59.948Z,16.95
2019-06-08T07:38:59.919Z,17.06
2019-06-08T07:40:00.384Z,17.04
2019-06-08T07:41:01.695Z,17.10
2019-06-08T07:42:00.055Z,17.07
2019-06-08T07:43:00.434Z,17.27
2019-06-08T07:43:59.830Z,17.45
2019-06-08T07:45:00.363Z,17.38
2019-06-08T07:46:00.058Z,17.41
2019-06-08T07:47:00.125Z,17.46
2019-06-08T07:48:00.595Z,17.57
2019-06-08T07:48:59.765Z,17.46
2019-06-08T07:50:59.645Z,17.81
2019-06-08T07:52:09.459Z,17.93
2019-06-08T07:53:00.088Z,17.94
2019-06-08T07:53:59.896Z,18.18
2019-06-08T07:54:59.583Z,18.27
2019-06-08T07:55:59.855Z,18.23
2019-06-08T07:57:00.029Z,18.26
2019-06-08T07:59:00.094Z,18.33
2019-06-08T08:01:07.318Z,18.56
2019-06-08T08:01:59.673Z,18.67
2019-06-08T08:02:59.529Z,18.78
2019-06-08T08:04:01.520Z,18.68
2019-06-08T08:05:59.544Z,18.83
2019-06-08T08:06:59.621Z,18.75
2019-06-08T08:07:59.571Z,18.98
2019-06-08T08:08:59.532Z,18.97
2019-06-08T08:09:59.573Z,18.98
2019-06-08T08:10:59.855Z,19.17
2019-06-08T08:12:00.173Z,19.09
2019-06-08T08:12:59.480Z,19.01
2019-06-08T08:14:59.773Z,18.45
2019-06-08T08:16:59.319Z,18.75
2019-06-08T08:19:59.450Z,19.56
2019-06-08T08:22:02.323Z,19.32
2019-06-08T08:24:01.488Z,18.93
2019-06-08T08:25:03.299Z,18.75
2019-06-08T08:26:01.690Z,18.82
2019-06-08T08:27:03.531Z,18.88
2019-06-08T08:34:05.496Z,18.82
2019-06-08T08:35:02.406Z,18.71
2019-06-08T08:36:01.756Z,18.78
2019-06-08T08:37:05.941Z,19.00
2019-06-08T08:40:01.361Z,18.97
2019-06-08T08:41:06.279Z,18.93
2019-06-08T08:42:04.765Z,18.93
2019-06-08T08:43:01.478Z,18.85
2019-06-08T08:44:04.198Z,18.86
2019-06-08T08:45:04.934Z,19.19
2019-06-08T08:46:00.668Z,19.24
2019-06-08T08:47:01.367Z,18.89
2019-06-08T08:48:15.627Z,18.74
2019-06-08T08:49:07.272Z,18.86
2019-06-08T08:50:00.621Z,19.24
2019-06-08T08:52:00.261Z,19.59
2019-06-08T08:55:00.924Z,19.84
2019-06-08T08:57:03.410Z,19.93
2019-06-08T08:57:59.459Z,19.44
2019-06-08T08:59:01.080Z,19.32
2019-06-08T09:01:02.116Z,19.26
2019-06-08T09:03:19.291Z,19.79
2019-06-08T09:04:03.031Z,19.72
2019-06-08T09:05:01.987Z,19.64
2019-06-08T09:07:05.516Z,20.05
2019-06-08T09:09:01.699Z,20.00
2019-06-08T09:14:05.268Z,18.97
2019-06-08T09:15:01.817Z,18.88
2019-06-08T09:16:02.165Z,18.78
2019-06-08T09:17:01.671Z,18.66
2019-06-08T09:18:01.790Z,18.60
2019-06-08T09:19:02.870Z,18.56
2019-06-08T09:20:03.275Z,18.56
2019-06-08T09:22:01.255Z,18.66
2019-06-08T09:23:06.772Z,18.71
2019-06-08T09:28:02.845Z,19.92
2019-06-08T09:28:58.586Z,19.81
2019-06-08T09:30:00.897Z,19.82
2019-06-08T09:31:01.755Z,19.52
2019-06-08T09:32:01.577Z,19.39
2019-06-08T09:33:00.577Z,19.41
2019-06-08T09:34:08.326Z,19.35
2019-06-08T09:35:02.309Z,19.45
2019-06-08T09:36:01.563Z,19.64
2019-06-08T09:37:00.185Z,19.57
2019-06-08T09:38:01.149Z,19.42
2019-06-08T09:39:00.757Z,19.99
2019-06-08T09:40:00.116Z,20.05
2019-06-08T09:41:01.243Z,19.96
2019-06-08T09:43:06.075Z,20.09
2019-06-08T09:44:02.365Z,20.02
2019-06-08T09:45:02.157Z,20.00
2019-06-08T09:47:04.624Z,19.54
2019-06-08T09:48:01.797Z,19.77
2019-06-08T09:49:05.901Z,19.60
2019-06-08T09:50:01.486Z,19.63
2019-06-08T09:51:01.716Z,19.42
2019-06-08T09:52:00.391Z,19.44
2019-06-08T09:54:02.066Z,19.37
2019-06-08T09:55:02.034Z,19.38
2019-06-08T09:56:02.325Z,19.71
2019-06-08T09:57:01.226Z,20.04
2019-06-08T09:58:03.939Z,19.81
2019-06-08T10:01:02.007Z,20.23
2019-06-08T10:03:01.309Z,20.75
2019-06-08T10:04:00.791Z,20.92
2019-06-08T10:05:00.706Z,20.55
2019-06-08T10:07:00.601Z,20.29
2019-06-08T10:08:01.859Z,20.17
2019-06-08T10:08:58.531Z,20.83
2019-06-08T10:10:00.350Z,21.38
2019-06-08T10:11:01.422Z,21.53
2019-06-08T10:13:01.068Z,21.63
2019-06-08T10:16:02.797Z,20.64
2019-06-08T10:17:00.680Z,20.14
2019-06-08T10:19:02.292Z,19.74
2019-06-08T10:21:01.193Z,19.78
2019-06-08T10:21:58.857Z,19.79
2019-06-08T10:23:01.158Z,19.78
2019-06-08T10:25:00.670Z,20.07
2019-06-08T10:26:59.368Z,20.36
2019-06-08T10:28:04.106Z,20.08
2019-06-08T10:29:00.332Z,20.04
2019-06-08T10:30:00.000Z,20.27
2019-06-08T10:31:00.032Z,20.46
2019-06-08T10:31:59.314Z,20.17
2019-06-08T10:33:00.482Z,20.09
2019-06-08T10:34:01.633Z,20.73
2019-06-08T10:34:59.976Z,20.80
2019-06-08T10:36:00.690Z,21.13
2019-06-08T10:37:03.353Z,21.13
2019-06-08T10:38:02.796Z,21.26
2019-06-08T10:39:01.625Z,21.37
2019-06-08T10:40:00.608Z,21.38
2019-06-08T10:41:00.346Z,21.59
2019-06-08T10:42:01.182Z,21.56
2019-06-08T10:43:00.856Z,21.43
2019-06-08T10:45:02.785Z,21.74
2019-06-08T10:47:00.367Z,21.37
2019-06-08T10:48:00.477Z,21.59
2019-06-08T10:48:59.491Z,22.09
2019-06-08T10:50:01.749Z,22.28
2019-06-08T10:50:59.978Z,21.71
2019-06-08T10:53:01.262Z,21.80
2019-06-08T10:55:00.989Z,21.05
2019-06-08T10:55:58.267Z,20.65
2019-06-08T10:57:00.310Z,20.70
2019-06-08T10:57:58.189Z,20.52
2019-06-08T10:59:00.256Z,20.44
2019-06-08T10:59:59.054Z,20.05
2019-06-08T11:01:00.176Z,20.00
2019-06-08T11:02:00.927Z,19.84
2019-06-08T11:03:58.468Z,19.38
2019-06-08T11:04:58.868Z,19.44
2019-06-08T11:05:59.161Z,19.49
2019-06-08T11:07:01.061Z,19.52
2019-06-08T11:07:59.348Z,19.49
2019-06-08T11:09:58.681Z,19.39
2019-06-08T11:11:58.374Z,19.32
2019-06-08T11:12:58.238Z,19.44
2019-06-08T11:13:58.474Z,19.52
2019-06-08T11:14:58.391Z,19.56
2019-06-08T11:18:00.402Z,19.87
2019-06-08T11:18:59.093Z,19.97
2019-06-08T11:20:59.507Z,20.36
2019-06-08T11:22:59.698Z,20.02
2019-06-08T11:24:23.052Z,20.05
2019-06-08T11:24:58.833Z,20.26
2019-06-08T11:26:58.092Z,20.50
2019-06-08T11:27:58.647Z,20.37
2019-06-08T11:28:58.600Z,20.37
2019-06-08T11:30:57.707Z,20.48
2019-06-08T11:31:58.678Z,20.75
2019-06-08T11:33:58.880Z,20.61
2019-06-08T11:34:57.409Z,20.70
2019-06-08T11:35:58.196Z,20.37
2019-06-08T11:36:59.613Z,20.14
2019-06-08T11:38:59.231Z,20.33
2019-06-08T11:39:57.703Z,20.42
2019-06-08T11:41:00.955Z,20.80
2019-06-08T11:41:58.805Z,21.07
2019-06-08T11:42:58.594Z,21.19
2019-06-08T11:43:59.598Z,21.53
2019-06-08T11:45:58.413Z,21.77
2019-06-08T11:46:57.949Z,21.22
2019-06-08T11:48:57.664Z,20.92
2019-06-08T11:49:57.710Z,20.73
2019-06-08T11:50:58.526Z,20.74
2019-06-08T11:51:58.312Z,20.86
2019-06-08T11:53:00.093Z,20.68
2019-06-08T11:53:59.272Z,20.71
2019-06-08T11:55:00.292Z,20.70
2019-06-08T11:55:58.528Z,20.71
2019-06-08T11:56:57.665Z,20.61
2019-06-08T11:57:58.605Z,20.73
2019-06-08T11:58:57.944Z,20.70
2019-06-08T11:59:58.456Z,21.19
2019-06-08T12:01:01.039Z,21.03
2019-06-08T12:01:58.647Z,20.74
2019-06-08T12:03:57.934Z,21.35
2019-06-08T12:04:57.332Z,21.55
2019-06-08T12:05:58.331Z,21.14
2019-06-08T12:06:58.401Z,21.07
2019-06-08T12:08:57.438Z,20.39
2019-06-08T12:09:58.363Z,20.07
2019-06-08T12:11:01.223Z,20.09
2019-06-08T12:11:58.123Z,20.11
2019-06-08T12:12:57.402Z,20.77
2019-06-08T12:13:58.485Z,21.13
2019-06-08T12:14:58.286Z,21.10
2019-06-08T12:15:58.863Z,21.03
2019-06-08T12:16:58.150Z,21.35
2019-06-08T12:17:58.718Z,22.03
2019-06-08T12:18:58.565Z,22.09
2019-06-08T12:19:57.732Z,22.64
2019-06-08T12:20:58.329Z,22.56
2019-06-08T12:21:57.993Z,22.73
2019-06-08T12:22:56.941Z,22.88
2019-06-08T12:24:56.914Z,22.71
2019-06-08T12:25:57.214Z,22.53
2019-06-08T12:27:03.493Z,22.22
2019-06-08T12:27:58.544Z,21.77
2019-06-08T12:29:58.788Z,21.73
2019-06-08T12:30:56.872Z,21.67
2019-06-08T12:32:58.117Z,21.48
2019-06-08T12:35:57.873Z,21.04
2019-06-08T12:36:58.341Z,20.79
2019-06-08T12:37:58.063Z,20.56
2019-06-08T12:39:57.967Z,21.56
2019-06-08T12:41:58.312Z,22.04
2019-06-08T12:42:59.441Z,22.18
2019-06-08T12:44:58.718Z,22.01
2019-06-08T12:45:58.097Z,22.51
2019-06-08T12:46:58.542Z,22.89
2019-06-08T12:47:56.735Z,22.58
2019-06-08T12:48:58.341Z,22.96
2019-06-08T12:49:58.500Z,22.80
2019-06-08T12:51:58.092Z,22.86
2019-06-08T12:52:58.315Z,22.76
2019-06-08T12:54:00.013Z,23.11
2019-06-08T12:55:57.966Z,21.90
2019-06-08T12:57:58.127Z,21.41
2019-06-08T12:59:59.829Z,21.08
2019-06-08T13:00:57.958Z,21.14
2019-06-08T13:01:58.671Z,20.97
2019-06-08T13:02:58.134Z,21.58
2019-06-08T13:03:58.112Z,22.16
2019-06-08T13:05:57.565Z,22.99
2019-06-08T13:06:58.452Z,22.68
2019-06-08T13:07:58.819Z,22.51
2019-06-08T13:08:57.766Z,22.83
2019-06-08T13:09:58.358Z,22.33
2019-06-08T13:10:57.464Z,21.59
2019-06-08T13:12:58.413Z,21.75
2019-06-08T13:13:56.564Z,21.55
2019-06-08T13:15:58.022Z,21.14
2019-06-08T13:16:56.538Z,21.34
2019-06-08T13:17:58.647Z,21.00
2019-06-08T13:18:58.694Z,20.67
2019-06-08T13:19:58.174Z,21.40
2019-06-08T13:20:59.005Z,21.81
2019-06-08T13:23:58.129Z,21.19
2019-06-08T13:25:15.170Z,20.90
2019-06-08T13:25:56.531Z,20.75
2019-06-08T13:26:57.886Z,20.65
2019-06-08T13:27:58.324Z,21.19
2019-06-08T13:28:58.325Z,21.90
2019-06-08T13:29:57.826Z,22.44
2019-06-08T13:31:58.680Z,22.74
2019-06-08T13:32:57.979Z,23.36
2019-06-08T13:34:58.221Z,23.66
2019-06-08T13:35:57.976Z,23.13
2019-06-08T13:37:57.583Z,22.92
2019-06-08T13:38:56.788Z,22.59
2019-06-08T13:39:59.049Z,21.80
2019-06-08T13:40:58.593Z,21.48
2019-06-08T13:41:56.647Z,21.43
2019-06-08T13:42:58.231Z,21.84
2019-06-08T13:44:57.803Z,21.80
2019-06-08T13:45:58.323Z,21.53
2019-06-08T13:46:57.777Z,21.43
2019-06-08T13:47:58.597Z,21.41
2019-06-08T13:49:56.390Z,21.10
2019-06-08T13:51:58.401Z,21.03
2019-06-08T13:52:58.678Z,20.89
2019-06-08T13:53:58.182Z,20.79
2019-06-08T13:54:58.209Z,20.70
2019-06-08T13:55:56.862Z,20.67
2019-06-08T13:56:58.784Z,20.53
2019-06-08T13:58:56.215Z,20.30
2019-06-08T13:59:57.838Z,20.32
2019-06-08T14:01:57.970Z,20.22
2019-06-08T14:02:57.856Z,20.25
2019-06-08T14:03:58.165Z,20.23
2019-06-08T14:05:56.137Z,20.23
2019-06-08T14:06:58.131Z,20.23
2019-06-08T14:07:58.842Z,20.25
2019-06-08T14:08:58.004Z,20.14
2019-06-08T14:09:58.281Z,20.07
2019-06-08T14:10:57.930Z,19.96
2019-06-08T14:11:57.746Z,19.96
2019-06-08T14:12:58.331Z,20.00
2019-06-08T14:14:00.829Z,19.89
2019-06-08T14:14:58.265Z,19.94
2019-06-08T14:15:58.449Z,19.99
2019-06-08T14:16:58.460Z,19.89
2019-06-08T14:17:58.059Z,19.90
2019-06-08T14:18:56.298Z,19.94
2019-06-08T14:19:55.969Z,19.99
2019-06-08T14:20:58.432Z,19.94
2019-06-08T14:21:56.580Z,19.92
2019-06-08T14:23:58.591Z,20.08
2019-06-08T14:24:56.131Z,20.14
2019-06-08T14:25:59.466Z,20.11
2019-06-08T14:26:58.274Z,20.25
2019-06-08T14:27:57.627Z,20.29
2019-06-08T14:29:00.727Z,20.26
2019-06-08T14:29:58.254Z,20.29
2019-06-08T14:30:55.854Z,20.29
2019-06-08T14:31:57.761Z,20.34
2019-06-08T14:32:57.769Z,20.44
2019-06-08T14:33:56.114Z,20.41
2019-06-08T14:34:58.340Z,20.56
2019-06-08T14:35:58.955Z,20.58
2019-06-08T14:36:55.778Z,20.56
2019-06-08T14:38:55.801Z,20.65
2019-06-08T14:39:57.447Z,21.22
2019-06-08T14:40:56.256Z,21.44
2019-06-08T14:41:57.695Z,21.25
2019-06-08T14:42:57.942Z,21.47
2019-06-08T14:44:57.745Z,22.52
2019-06-08T14:46:57.896Z,22.53
2019-06-08T14:47:55.656Z,22.56
2019-06-08T14:48:58.333Z,22.64
2019-06-08T14:49:55.696Z,22.92
2019-06-08T14:51:57.785Z,22.95
2019-06-08T14:52:58.615Z,23.10
2019-06-08T14:53:58.146Z,23.48
2019-06-08T14:54:56.513Z,23.60
2019-06-08T14:56:57.580Z,22.64
2019-06-08T14:57:57.858Z,22.81
2019-06-08T14:58:58.058Z,22.95
2019-06-08T14:59:57.194Z,23.15
2019-06-08T15:00:57.883Z,22.43
2019-06-08T15:01:55.802Z,21.66
2019-06-08T15:02:55.507Z,21.41
2019-06-08T15:03:55.650Z,21.38
2019-06-08T15:04:55.479Z,21.11
2019-06-08T15:05:57.631Z,21.00
2019-06-08T15:06:55.459Z,21.19
2019-06-08T15:08:55.500Z,21.29
2019-06-08T15:09:55.527Z,21.20
2019-06-08T15:10:57.837Z,21.26
2019-06-08T15:11:57.996Z,21.38
2019-06-08T15:12:57.579Z,21.43
2019-06-08T15:13:55.429Z,21.28
2019-06-08T15:16:58.871Z,20.95
2019-06-08T15:17:57.950Z,20.90
2019-06-08T15:18:55.365Z,20.75
2019-06-08T15:21:55.363Z,20.71
2019-06-08T15:22:57.702Z,20.70
2019-06-08T15:23:57.754Z,20.73
2019-06-08T15:25:55.264Z,21.25
2019-06-08T15:26:58.163Z,21.18
2019-06-08T15:28:00.653Z,21.47
2019-06-08T15:28:55.248Z,21.94
2019-06-08T15:29:55.393Z,22.37
2019-06-08T15:30:59.774Z,22.30
2019-06-08T15:32:58.419Z,22.43
2019-06-08T15:34:57.753Z,22.12
2019-06-08T15:35:57.570Z,22.07
2019-06-08T15:36:57.458Z,22.27
2019-06-08T15:37:55.230Z,22.44
2019-06-08T15:38:55.730Z,22.27
2019-06-08T15:39:55.357Z,21.88
2019-06-08T15:42:55.458Z,22.33
2019-06-08T15:43:57.499Z,21.93
2019-06-08T15:45:55.330Z,21.97
2019-06-08T15:46:55.082Z,21.94
2019-06-08T15:48:55.143Z,22.66
2019-06-08T15:49:58.399Z,22.56
2019-06-08T15:50:58.225Z,21.94
2019-06-08T15:51:57.773Z,21.74
2019-06-08T15:52:55.058Z,21.55
2019-06-08T15:53:54.990Z,21.38
2019-06-08T15:54:58.256Z,21.55
2019-06-08T15:55:55.160Z,21.56
2019-06-08T15:56:58.544Z,21.98
2019-06-08T15:57:54.970Z,22.31
2019-06-08T15:58:54.943Z,22.43
2019-06-08T15:59:54.953Z,22.81
2019-06-08T16:00:55.541Z,22.99
2019-06-08T16:01:55.032Z,22.96
2019-06-08T16:04:54.985Z,22.30
2019-06-08T16:05:55.467Z,22.13
2019-06-08T16:06:55.009Z,22.04
2019-06-08T16:07:55.429Z,21.82
2019-06-08T16:08:55.869Z,21.65
2019-06-08T16:09:55.368Z,21.88
2019-06-08T16:10:55.090Z,21.55
2019-06-08T16:12:55.057Z,21.56
2019-06-08T16:13:54.995Z,21.73
2019-06-08T16:14:54.954Z,21.94
2019-06-08T16:15:55.907Z,22.23
2019-06-08T16:17:54.994Z,22.27
2019-06-08T16:19:55.068Z,21.47
2019-06-08T16:20:54.832Z,21.40